Time;durP1;ratioP1;P1;durP2;ratioP2;P2;SDS_P1;SDS_P2;PMS_P1;PMS_P2;Temp;Humidity;BMP_temperature;BMP_pressure;BME280_temperature;BME280_humidity;BME280_pressure;Samples;Min_cycle;Max_cycle;Signal;HPM_P1;HPM_P2
2021/04/01 00:01:07;;;;;;;14.00;7.47;;;9.70;99.90;;;8.30;75.71;101588.09;4933269;28;105781;-40
2021/04/01 00:03:35;;;;;;;13.45;7.65;;;9.70;99.90;;;8.22;76.01;101580.81;4966542;28;102503;-41
2021/04/01 00:06:03;;;;;;;11.70;6.80;;;9.70;99.90;;;8.23;76.13;101581.69;4948747;28;102551;-41
2021/04/01 00:08:30;;;;;;;13.63;7.32;;;9.60;99.90;;;8.26;76.48;101584.03;4949962;28;103406;-41
2021/04/01 00:10:58;;;;;;;11.93;7.27;;;9.60;99.90;;;8.25;76.40;101582.34;4933250;28;102653;-41
2021/04/01 00:13:26;;;;;;;14.20;7.55;;;9.60;99.90;;;8.23;76.50;101577.09;4917019;28;104546;-41
2021/04/01 00:15:58;;;;;;;11.43;6.30;;;9.60;99.90;;;8.22;76.45;101569.94;4949344;28;105427;-41
2021/04/01 00:18:26;;;;;;;11.10;6.40;;;9.60;99.90;;;8.19;76.43;101573.88;4918467;28;102486;-41
2021/04/01 00:20:54;;;;;;;13.75;7.13;;;9.60;99.90;;;8.19;76.53;101573.88;4948816;28;103982;-41
2021/04/01 00:23:23;;;;;;;11.68;6.75;;;9.60;99.90;;;8.19;76.78;101568.44;4948965;28;104333;-41
2021/04/01 00:25:52;;;;;;;9.48;6.65;;;9.60;99.90;;;8.19;77.02;101565.72;4949364;28;102611;-41
2021/04/01 00:28:19;;;;;;;13.82;7.95;;;9.60;99.90;;;8.19;77.17;101568.44;4949018;28;106000;-43
2021/04/01 00:30:47;;;;;;;15.48;8.85;;;9.60;99.90;;;8.23;77.19;101576.25;4933201;28;103816;-41
2021/04/01 00:33:14;;;;;;;14.80;8.47;;;9.60;99.90;;;8.24;76.84;101577.94;4948676;28;104329;-38
2021/04/01 00:35:41;;;;;;;13.60;8.33;;;9.70;99.90;;;8.23;76.74;101576.25;4917041;28;102687;-41
2021/04/01 00:38:09;;;;;;;16.73;10.13;;;9.60;99.90;;;8.18;76.71;101563.19;4965480;28;103383;-41
2021/04/01 00:43:15;;;;;;;17.80;11.70;;;9.60;99.90;;;8.17;76.89;101567.75;4890167;28;103340;-38
2021/04/01 00:45:43;;;;;;;16.23;10.68;;;9.60;99.90;;;8.15;76.76;101564.38;4882478;28;103690;-39
2021/04/01 00:48:11;;;;;;;16.55;10.35;;;9.60;99.90;;;8.11;77.05;101557.59;4871579;28;103545;-39
2021/04/01 00:50:38;;;;;;;16.55;10.85;;;9.50;99.90;;;8.04;77.94;101567.50;4903450;28;102818;-39
2021/04/01 00:53:07;;;;;;;16.73;9.43;;;9.40;99.90;;;8.01;77.98;101551.56;4887669;28;104202;-39
2021/04/01 00:55:34;;;;;;;16.40;8.90;;;9.40;99.90;;;7.98;78.40;101560.06;4855697;28;103697;-39
2021/04/01 00:58:04;;;;;;;14.33;9.40;;;9.40;99.90;;;7.95;78.86;101560.41;4871721;28;102582;-39
2021/04/01 01:00:33;;;;;;;17.27;9.25;;;9.30;99.90;;;7.97;78.89;101556.50;4871606;28;102537;-39
2021/04/01 01:03:03;;;;;;;14.18;8.88;;;9.40;99.90;;;7.99;78.51;101557.16;4887123;28;102657;-39
2021/04/01 01:05:35;;;;;;;17.08;9.13;;;9.30;99.90;;;8.00;78.00;101556.13;4886447;28;102661;-39
2021/04/01 01:08:04;;;;;;;13.02;8.40;;;9.40;99.90;;;7.96;77.99;101552.09;4871856;28;103318;-39
2021/04/01 01:10:33;;;;;;;13.80;8.77;;;9.30;99.90;;;7.97;78.41;101558.38;4903514;28;102440;-39
2021/04/01 01:13:03;;;;;;;14.82;8.40;;;9.40;99.90;;;7.98;78.43;101554.63;4902869;28;104986;-39
2021/04/01 01:15:32;;;;;;;13.50;8.23;;;9.40;99.90;;;8.00;78.63;101553.41;4871495;28;102545;-39
2021/04/01 01:17:59;;;;;;;13.80;8.50;;;9.40;99.90;;;8.00;78.68;101558.03;4887067;28;103457;-39
2021/04/01 01:20:29;;;;;;;13.88;8.32;;;9.40;99.90;;;7.99;78.76;101556.31;4902790;28;102486;-39
2021/04/01 01:23:17;;;;;;;12.38;7.85;;;9.40;99.90;;;8.00;78.70;101541.72;4889590;28;103866;-38
2021/04/01 01:25:45;;;;;;;13.80;7.90;;;9.40;99.90;;;8.02;78.22;101542.38;4886988;28;102541;-39
2021/04/01 01:28:13;;;;;;;15.35;8.73;;;9.40;99.90;;;7.99;77.89;101540.84;4871580;28;103697;-39
2021/04/01 01:30:40;;;;;;;16.38;9.00;;;9.40;99.90;;;8.00;78.66;101547.97;4871513;28;102866;-39
2021/04/01 01:33:09;;;;;;;14.38;8.00;;;9.40;99.90;;;7.99;78.38;101553.59;4855921;28;104125;-39
2021/04/01 01:35:37;;;;;;;11.57;7.82;;;9.40;99.90;;;7.96;78.67;101551.25;4870210;28;102946;-39
2021/04/01 01:38:08;;;;;;;14.35;9.18;;;9.40;99.90;;;7.94;78.51;101553.28;4871714;28;104180;-39
2021/04/01 01:40:37;;;;;;;14.68;8.77;;;9.30;99.90;;;7.91;78.45;101549.88;4886870;28;106194;-39
2021/04/01 01:43:10;;;;;;;13.43;7.90;;;9.30;99.90;;;7.89;78.37;101546.50;4918253;28;104374;-39
2021/04/01 01:45:40;;;;;;;14.57;9.02;;;9.30;99.90;;;7.87;78.67;101548.56;4917255;28;102636;-39
2021/04/01 01:48:09;;;;;;;15.05;9.10;;;9.30;99.90;;;7.87;78.71;101550.44;4902859;28;104650;-39
2021/04/01 01:50:39;;;;;;;13.15;8.77;;;9.30;99.90;;;7.82;78.63;101547.38;4870968;28;102515;-39
2021/04/01 01:53:10;;;;;;;11.98;8.45;;;9.20;99.90;;;7.75;79.40;101539.94;4902717;28;103405;-39
2021/04/01 01:55:40;;;;;;;12.20;8.07;;;9.20;99.90;;;7.69;79.68;101547.94;4869943;28;103115;-39
2021/04/01 01:58:07;;;;;;;10.85;7.20;;;9.10;99.90;;;7.68;79.84;101551.69;4902506;28;102583;-39
2021/04/01 02:00:49;;;;;;;13.05;7.75;;;9.10;99.90;;;7.69;80.43;101540.66;4870918;28;102353;-39
2021/04/01 02:03:18;;;;;;;11.98;7.28;;;9.10;99.90;;;7.69;80.26;101546.09;4886077;28;104079;-38
2021/04/01 02:05:45;;;;;;;10.77;7.00;;;9.10;99.90;;;7.68;79.77;101547.09;4854904;28;102344;-39
2021/04/01 02:08:14;;;;;;;11.10;7.05;;;9.10;99.90;;;7.63;79.37;101539.47;4902332;28;103024;-39
2021/04/01 02:10:47;;;;;;;14.77;7.90;;;9.00;99.90;;;7.55;79.89;101536.78;4854966;28;105352;-39
2021/04/01 02:13:18;;;;;;;13.82;7.30;;;9.00;99.90;;;7.53;79.82;101544.28;4886168;28;102479;-38
2021/04/01 02:15:49;;;;;;;11.30;6.72;;;9.00;99.90;;;7.51;79.42;101535.47;4870860;28;102787;-39
2021/04/01 02:18:23;;;;;;;12.82;7.22;;;8.90;99.90;;;7.53;79.68;101537.97;4855260;28;103433;-39
2021/04/01 02:20:54;;;;;;;13.05;6.85;;;8.90;99.90;;;7.52;79.89;101539.88;4903273;28;104998;-39
2021/04/01 02:23:27;;;;;;;10.82;6.25;;;8.90;99.90;;;7.52;80.30;101537.16;4886151;28;103045;-38
2021/04/01 02:25:57;;;;;;;12.38;6.78;;;8.90;99.90;;;7.56;80.49;101533.06;4886228;28;102546;-39
2021/04/01 02:28:29;;;;;;;13.18;7.25;;;9.00;99.90;;;7.61;80.28;101537.97;4901445;28;105533;-39
2021/04/01 02:31:01;;;;;;;12.77;7.05;;;9.00;99.90;;;7.61;79.79;101527.94;4902204;28;103754;-39
2021/04/01 02:33:33;;;;;;;11.93;6.70;;;9.00;99.90;;;7.60;79.63;101526.25;4885790;28;104879;-38
2021/04/01 02:36:04;;;;;;;9.10;6.13;;;9.00;99.90;;;7.60;79.43;101537.13;4885660;28;102474;-39
2021/04/01 02:38:31;;;;;;;11.38;6.88;;;9.00;99.90;;;7.62;79.71;101534.25;4870218;28;102346;-39
2021/04/01 02:41:00;;;;;;;11.07;6.60;;;9.00;99.90;;;7.61;79.79;101527.94;4885873;28;102606;-39
2021/04/01 02:46:07;;;;;;;11.82;6.78;;;9.00;99.90;;;7.62;79.71;101523.38;4887361;28;103447;-39
2021/04/01 02:48:36;;;;;;;13.80;6.90;;;9.00;99.90;;;7.62;79.84;101536.97;4886018;28;104374;-39
2021/04/01 02:51:05;;;;;;;14.18;7.25;;;9.00;99.90;;;7.63;80.13;101539.47;4885851;28;103624;-39
2021/04/01 02:53:33;;;;;;;10.10;6.75;;;9.00;99.90;;;7.68;79.93;101527.22;4885340;28;104126;-38
2021/04/01 02:56:00;;;;;;;12.50;6.77;;;9.00;99.90;;;7.69;79.72;101527.06;4902200;28;104489;-39
2021/04/01 02:58:28;;;;;;;11.60;7.10;;;9.10;99.90;;;7.69;80.23;101509.91;4885995;28;102552;-39
2021/04/01 03:00:56;;;;;;;11.63;7.25;;;9.10;99.90;;;7.75;80.18;101522.81;4885658;28;103451;-39
2021/04/01 03:03:28;;;;;;;17.53;7.40;;;9.10;99.90;;;7.75;80.32;101520.09;4869733;28;104716;-38
2021/04/01 03:05:57;;;;;;;12.82;7.40;;;9.10;99.90;;;7.76;80.25;101516.34;4870697;28;102665;-39
2021/04/01 03:08:25;;;;;;;13.52;6.95;;;9.10;99.90;;;7.78;80.23;101522.44;4854361;28;103484;-39
2021/04/01 03:10:53;;;;;;;11.35;5.90;;;9.20;99.90;;;7.81;80.04;101515.81;4869940;28;102446;-39
2021/04/01 03:13:20;;;;;;;;;;;9.20;99.90;;;7.89;80.40;101526.66;4855555;28;103594;-38
2021/04/01 03:15:50;;;;;;;11.48;6.80;;;9.20;99.90;;;7.90;80.39;101526.47;4901558;28;103917;-40
2021/04/01 03:18:20;;;;;;;9.88;6.60;;;9.30;99.90;;;7.91;80.38;101527.31;4869706;28;106140;-39
2021/04/01 03:20:49;;;;;;;12.10;6.38;;;9.30;99.90;;;7.91;80.17;101528.16;4885673;28;102630;-39
2021/04/01 03:23:17;;;;;;;10.82;6.43;;;9.30;99.90;;;7.92;80.34;101529.84;4869282;28;102434;-38
2021/04/01 03:25:46;;;;;;;10.55;6.20;;;9.30;99.90;;;7.94;80.54;101532.38;4885864;28;102558;-39
2021/04/01 03:28:14;;;;;;;13.20;7.15;;;9.30;99.90;;;7.94;80.67;101526.97;4901701;28;104116;-39
2021/04/01 03:30:52;;;;;;;11.93;6.68;;;9.30;99.90;;;7.94;80.47;101532.38;4885465;28;102900;-39
2021/04/01 03:33:20;;;;;;;11.65;6.80;;;9.30;99.90;;;7.95;80.64;101533.22;4870553;28;103355;-38
2021/04/01 03:35:47;;;;;;;12.13;6.97;;;9.30;99.90;;;7.94;80.58;101532.38;4885744;28;103728;-39
2021/04/01 03:38:15;;;;;;;11.97;7.23;;;9.30;99.90;;;7.95;80.41;101530.50;4901328;28;103685;-39
2021/04/01 03:40:43;;;;;;;14.88;8.20;;;9.30;99.90;;;7.95;80.67;101533.22;4887899;28;103558;-39
2021/04/01 03:43:10;;;;;;;13.15;7.40;;;9.30;99.90;;;7.97;80.59;101533.91;4872404;28;104420;-39
2021/04/01 03:45:39;;;;;;;13.95;7.38;;;9.30;99.90;;;7.96;80.64;101537.66;4887964;28;102732;-39
2021/04/01 03:48:08;;;;;;;13.38;7.25;;;9.30;99.90;;;7.98;80.59;101543.75;4873063;28;102403;-39
2021/04/01 03:50:35;;;;;;;11.95;6.75;;;9.40;99.90;;;7.97;80.46;101539.34;4888397;28;102844;-39
2021/04/01 03:53:04;;;;;;;15.35;7.63;;;9.40;99.90;;;7.98;80.67;101539.16;4904152;28;104210;-40
2021/04/01 04:11:20;;;;;;;13.57;7.28;;;9.40;99.90;;;7.91;80.67;101552.59;4859066;28;102233;-39
2021/04/01 04:16:25;;;;;;;14.70;7.40;;;9.30;99.90;;;7.88;80.51;101552.13;4889355;28;102539;-39
2021/04/01 04:18:52;;;;;;;13.38;7.50;;;9.30;99.90;;;7.87;80.32;101550.44;4856536;28;102460;-39
2021/04/01 04:21:20;;;;;;;14.07;7.60;;;9.30;99.90;;;7.83;80.08;101563.50;4872440;28;102832;-39
2021/04/01 04:23:48;;;;;;;15.55;8.75;;;9.20;99.90;;;7.76;80.11;101560.66;4887671;28;102847;-39
2021/04/01 04:26:17;;;;;;;13.68;8.40;;;9.20;99.90;;;7.72;80.44;101563.91;4888467;28;104486;-39
2021/04/01 04:28:45;;;;;;;19.05;9.05;;;9.20;99.90;;;7.72;80.53;101561.19;4872432;28;102880;-41
2021/04/01 04:31:12;;;;;;;17.15;8.50;;;9.10;99.90;;;7.68;80.24;101562.53;4903570;28;105351;-39
2021/04/01 04:33:39;;;;;;;18.23;8.87;;;9.10;99.90;;;7.66;80.60;101568.16;4855762;28;103027;-40
2021/04/01 04:36:09;;;;;;;13.18;7.63;;;9.10;99.90;;;7.62;80.59;101564.13;4887806;28;104656;-38
2021/04/01 04:38:37;;;;;;;17.05;8.40;;;9.10;99.90;;;7.60;80.92;101569.69;4904239;28;104375;-39
2021/04/01 04:41:05;;;;;;;14.00;8.25;;;9.00;99.90;;;7.57;81.58;101570.06;4903514;28;103533;-39
2021/04/01 04:43:35;;;;;;;14.68;7.70;;;9.00;99.90;;;7.53;81.78;101568.72;4902248;28;102399;-40
2021/04/01 04:46:03;;;;;;;13.98;7.88;;;9.00;99.90;;;7.47;81.18;101567.53;4872934;28;102339;-39
2021/04/01 04:48:30;;;;;;;;;;;8.90;99.90;;;7.42;81.49;101569.06;4873035;28;102363;-39
2021/04/01 04:50:57;;;;;;;18.20;8.95;;;8.90;99.90;;;7.43;81.67;101573.50;4903046;28;103195;-39
2021/04/01 04:53:25;;;;;;;15.03;8.20;;;8.80;99.90;;;7.36;81.87;101572.47;4855764;28;103654;-38
2021/04/01 04:58:28;;;;;;;14.77;7.68;;;8.80;99.90;;;7.24;81.40;101564.72;4903799;28;102390;-39
2021/04/01 05:01:03;;;;;;;16.42;8.63;;;8.70;99.90;;;7.15;81.29;101568.44;4872932;28;103550;-40
2021/04/01 05:06:08;;;;;;;16.17;9.20;;;8.60;99.90;;;7.04;81.97;101581.34;4888600;28;102642;-39
2021/04/01 05:08:35;;;;;;;17.98;8.57;;;8.50;99.90;;;7.00;82.06;101585.41;4872148;28;102387;-39
2021/04/01 05:11:03;;;;;;;21.60;9.97;;;8.50;99.90;;;6.98;82.57;101582.03;4902889;28;102592;-39
2021/04/01 05:13:30;;;;;;;16.70;8.73;;;8.40;99.90;;;6.88;82.69;101575.91;4854768;28;105341;-38
2021/04/01 05:15:57;;;;;;;18.30;10.15;;;8.40;99.90;;;6.89;81.80;101593.88;4887454;28;104932;-39
2021/04/01 05:18:27;;;;;;;18.67;9.15;;;8.40;99.90;;;6.88;82.45;101594.91;4904314;28;102441;-39
2021/04/01 05:20:58;;;;;;;18.88;9.55;;;8.30;99.90;;;6.85;82.65;101598.81;4886993;28;102761;-39
2021/04/01 05:23:32;;;;;;;19.80;10.30;;;8.30;99.90;;;6.85;83.27;101603.38;4903013;28;102989;-39
2021/04/01 05:28:37;;;;;;;17.33;10.05;;;8.30;99.90;;;6.81;83.05;101607.44;4902949;28;102418;-39
2021/04/01 05:31:08;;;;;;;18.10;9.35;;;8.30;99.90;;;6.78;82.47;101599.66;4901123;28;102716;-39
2021/04/01 05:33:38;;;;;;;21.02;10.57;;;8.20;99.90;;;6.74;82.47;101599.13;4903901;28;103724;-39
2021/04/01 05:36:09;;;;;;;21.05;9.55;;;8.20;99.90;;;6.71;81.98;101608.47;4887164;28;102668;-39
2021/04/01 05:38:38;;;;;;;23.48;10.77;;;8.20;99.90;;;6.71;82.67;101613.91;4902748;28;105451;-40
2021/04/01 05:41:09;;;;;;;22.40;10.55;;;8.20;99.90;;;6.73;82.91;101617.28;4902149;28;102701;-39
2021/04/01 05:43:41;;;;;;;22.50;10.65;;;8.20;99.90;;;6.75;83.26;101626.09;4901686;28;103612;-41
2021/04/01 05:46:19;;;;;;;20.98;10.80;;;8.20;99.90;;;6.73;82.80;101625.41;4886842;28;102631;-41
2021/04/01 05:59:26;;;;;;;21.17;10.35;;;8.20;99.90;;;6.85;83.08;101642.22;4903685;28;102516;-41
2021/04/01 06:04:44;;;;;;;23.98;11.32;;;8.30;99.90;;;6.95;83.25;101636.63;4902753;28;102403;-40
2021/04/01 06:07:21;;;;;;;20.92;11.43;;;8.30;99.90;;;7.02;83.75;101643.09;4903454;28;102475;-41
2021/04/01 06:09:57;;;;;;;23.23;12.38;;;8.40;99.90;;;7.09;82.93;101637.84;4902392;28;102381;-40
2021/04/01 06:12:31;;;;;;;22.30;11.77;;;8.50;99.90;;;7.15;83.36;101642.56;4901730;28;105604;-39
2021/04/01 06:15:07;;;;;;;24.83;11.93;;;8.50;99.90;;;7.26;83.23;101644.09;4902626;28;103405;-39
2021/04/01 06:17:35;;;;;;;22.38;11.88;;;8.60;99.90;;;7.33;82.95;101645.09;4902536;28;104647;-39
2021/04/01 06:20:07;;;;;;;25.13;12.48;;;8.60;99.90;;;7.44;83.16;101645.78;4886276;28;104802;-39
2021/04/01 06:22:34;;;;;;;31.85;12.35;;;8.70;99.90;;;7.53;83.05;101650.19;4886652;28;102657;-39
2021/04/01 06:25:07;;;;;;;23.73;10.68;;;8.80;99.90;;;7.69;83.07;101643.00;4901347;28;104510;-40
2021/04/01 06:27:42;;;;;;;19.85;11.48;;;8.90;99.90;;;7.81;82.90;101636.19;4902748;28;102269;-41
2021/04/01 06:33:04;;;;;;;24.40;11.48;;;9.20;99.90;;;8.05;82.70;101626.28;4903598;28;102388;-41
2021/04/01 06:35:34;;;;;;;22.77;12.85;;;9.30;99.90;;;8.22;83.18;101624.31;4902597;28;103477;-41
2021/04/01 06:38:20;;;;;;;24.27;13.13;;;9.40;99.90;;;8.42;83.61;101630.16;4901658;28;102593;-41
2021/04/01 06:40:52;;;;;;;25.50;11.90;;;9.60;99.90;;;8.60;83.66;101629.91;4903125;28;103345;-41
2021/04/01 06:43:29;;;;;;;21.80;12.38;;;9.70;99.90;;;8.75;83.64;101630.00;5004481;22;103544;-41
2021/04/01 06:46:01;;;;;;;21.98;12.50;;;9.90;99.90;;;8.93;83.62;101628.84;4943453;28;102366;-41
2021/04/01 06:51:27;;;;;;;23.75;13.10;;;10.20;99.90;;;9.22;83.23;101627.25;4960492;28;103521;-41
2021/04/01 06:54:06;;;;;;;26.45;13.73;;;10.40;99.90;;;9.55;83.13;101646.03;4943837;28;104825;-41
2021/04/01 06:57:23;;;;;;;25.98;13.38;;;10.60;99.90;;;9.77;81.68;101638.81;4943741;28;104985;-41
2021/04/01 07:03:07;;;;;;;23.67;13.40;;;11.10;99.90;;;10.26;78.67;101644.69;4960040;28;103495;-40
2021/04/01 07:05:51;;;;;;;22.85;12.60;;;11.30;99.90;;;10.48;77.52;101642.91;4960024;28;102496;-40
2021/04/01 07:08:37;;;;;;;22.05;12.20;;;11.50;99.90;;;10.72;75.79;101643.59;4943713;28;103413;-41
2021/04/01 07:11:09;;;;;;;25.10;12.82;;;11.70;99.90;;;10.94;75.30;101646.31;4960657;28;102409;-40
2021/04/01 07:13:48;;;;;;;28.45;13.98;;;11.80;99.90;;;11.16;73.47;101649.88;4960055;28;103420;-41
2021/04/01 07:18:58;;;;;;;31.90;14.30;;;12.30;99.90;;;11.60;72.33;101652.56;4964551;28;103426;-41
2021/04/01 07:48:04;;;;;;;46.03;21.43;;;14.20;99.90;;;13.53;58.75;101663.59;4964231;28;102574;-41
2021/04/01 07:50:44;;;;;;;56.95;24.10;;;14.30;99.90;;;13.75;54.78;101660.56;4946724;28;103449;-42
2021/04/01 07:53:13;;;;;;;56.47;22.38;;;14.50;99.90;;;13.93;54.35;101668.16;4963831;28;102737;-41
2021/04/01 07:56:03;;;;;;;49.92;21.67;;;14.80;99.90;;;14.09;56.44;101664.09;4963095;28;103641;-41
2021/04/01 08:06:26;;;;;;;48.58;21.90;;;15.30;99.90;;;14.58;53.54;101653.56;4962688;28;102330;-41
2021/04/01 08:08:58;;;;;;;50.75;22.27;;;15.40;99.90;;;14.67;52.29;101651.41;4962787;28;102867;-41
2021/04/01 08:11:32;;;;;;;54.53;22.55;;;15.50;99.90;;;14.74;53.03;101654.97;4962715;28;102435;-41
2021/04/01 08:14:15;;;;;;;50.17;21.42;;;15.60;99.90;;;14.91;54.21;101658.03;4946500;28;104510;-41
2021/04/01 08:16:52;;;;;;;49.20;21.90;;;15.70;99.90;;;15.01;53.60;101657.56;4962315;28;104334;-42
2021/04/01 08:19:23;;;;;;;44.63;21.17;;;15.80;99.90;;;15.10;53.13;101649.88;4963411;28;102259;-42
2021/04/01 08:21:53;;;;;;;50.75;22.73;;;15.90;99.90;;;15.27;52.06;101657.59;4945901;28;105251;-41
2021/04/01 08:24:52;;;;;;;47.42;20.55;;;16.00;99.90;;;15.41;51.89;101655.56;4934655;28;103386;-42
2021/04/01 08:27:56;;;;;;;50.92;21.88;;;16.20;99.90;;;15.54;53.12;101658.19;4962767;28;104268;-42
2021/04/01 08:36:53;;;;;;;51.72;22.13;;;16.60;99.90;;;15.81;49.07;101667.03;4949862;28;102324;-41
2021/04/01 08:39:45;;;;;;;47.55;21.10;;;16.70;99.20;;;15.99;49.42;101665.38;4947896;28;103547;-42
2021/04/01 08:42:54;;;;;;;51.88;22.15;;;16.80;99.40;;;16.17;48.38;101671.97;4962100;28;102684;-41
2021/04/01 08:46:11;;;;;;;47.58;20.65;;;16.90;98.60;;;16.34;49.57;101670.28;4962049;28;105303;-41
2021/04/01 08:49:11;;;;;;;45.92;20.38;;;17.10;99.50;;;16.57;50.58;101673.41;4962309;28;102468;-39
2021/04/01 08:51:43;;;;;;;47.55;21.60;;;17.30;99.90;;;16.70;48.93;101667.69;4944830;28;102559;-43
2021/04/01 08:54:22;;;;;;;44.53;20.77;;;17.40;99.30;;;16.81;48.95;101664.16;4961585;28;102596;-42
2021/04/01 08:57:11;;;;;;;51.08;20.40;;;17.50;99.00;;;16.95;46.86;101666.69;4929750;28;104232;-41
2021/04/01 09:00:01;;;;;;;48.88;21.23;;;17.70;97.10;;;17.07;46.65;101666.75;4962689;28;104450;-42
2021/04/01 09:02:29;;;;;;;52.20;21.77;;;17.80;96.30;;;16.95;45.68;101680.47;4944944;28;102942;-42
2021/04/01 09:05:02;;;;;;;47.65;20.25;;;17.90;94.30;;;17.08;45.42;101676.72;4896519;28;102729;-42
2021/04/01 09:07:47;;;;;;;45.53;20.85;;;18.00;94.70;;;17.09;46.19;101670.97;4945077;28;104775;-42
2021/04/01 09:17:52;;;;;;;49.85;20.38;;;18.30;94.20;;;17.63;45.16;101670.09;4945054;28;102599;-43
2021/04/01 09:20:23;;;;;;;56.47;23.08;;;18.40;92.90;;;17.65;44.56;101667.94;4944732;28;102654;-43
2021/04/01 09:22:56;;;;;;;50.40;21.38;;;18.50;92.40;;;17.83;44.62;101679.94;4944382;28;105288;-43
2021/04/01 09:25:40;;;;;;;53.55;21.45;;;18.60;91.90;;;17.84;43.79;101670.56;4961260;28;103037;-42
2021/04/01 09:28:10;;;;;;;51.63;20.58;;;18.60;90.40;;;17.86;43.34;101665.66;4944369;28;102466;-42
2021/04/01 09:30:39;;;;;;;52.33;22.30;;;18.70;88.90;;;17.98;44.03;101666.47;4944856;28;103283;-42
2021/04/01 09:33:25;;;;;;;53.70;22.20;;;18.80;90.40;;;17.89;42.83;101658.78;4960734;28;104199;-44
2021/04/01 09:36:06;;;;;;;53.92;22.50;;;18.80;85.80;;;17.81;43.79;101660.84;4962054;28;102486;-42
2021/04/01 09:38:39;;;;;;;53.38;21.80;;;18.70;87.30;;;17.92;42.81;101656.41;4946544;28;103469;-41
2021/04/01 09:41:09;;;;;;;50.53;21.98;;;18.80;84.50;;;18.06;42.91;101657.00;4944659;28;103421;-42
2021/04/01 09:43:49;;;;;;;57.35;23.23;;;18.90;85.30;;;18.22;43.58;101666.47;4959161;28;104347;-42
2021/04/01 09:46:17;;;;;;;55.60;21.70;;;19.00;87.20;;;18.30;41.98;101667.16;4944232;28;102361;-42
2021/04/01 09:49:04;;;;;;;58.15;23.58;;;19.10;82.50;;;18.45;41.37;101664.72;4945007;28;102744;-42
2021/04/01 09:51:34;;;;;;;53.60;21.77;;;19.20;80.80;;;18.63;42.67;101660.91;4943761;28;102647;-42
2021/04/01 09:54:03;;;;;;;54.72;23.17;;;19.30;83.70;;;18.74;41.76;101672.19;4961108;28;102773;-42
2021/04/01 09:56:33;;;;;;;58.05;23.45;;;19.50;81.70;;;18.83;41.38;101677.06;4944615;28;102844;-42
2021/04/01 09:59:00;;;;;;;64.10;24.08;;;19.60;81.30;;;18.97;42.18;101677.59;4912512;28;106137;-42
2021/04/01 10:01:33;;;;;;;59.00;23.27;;;19.70;81.80;;;18.89;40.00;101677.16;4944228;28;102834;-41
2021/04/01 10:04:18;;;;;;;56.10;20.75;;;19.70;75.00;;;19.09;40.98;101668.44;4961092;28;104638;-44
2021/04/01 10:06:50;;;;;;;52.40;20.75;;;19.80;77.90;;;19.06;40.48;101669.75;4961282;28;102859;-42
2021/04/01 10:09:28;;;;;;;52.08;19.95;;;19.90;76.00;;;19.18;39.58;101666.91;4961774;28;104387;-42
2021/04/01 10:11:59;;;;;;;53.53;21.02;;;19.90;72.80;;;19.24;39.04;101676.16;4944291;28;102895;-40
2021/04/01 10:14:29;;;;;;;54.58;19.55;;;20.00;71.00;;;19.38;40.47;101671.97;4960328;28;102836;-40
2021/04/01 10:17:20;;;;;;;50.80;21.05;;;20.10;74.30;;;19.26;39.07;101673.97;4946730;28;102619;-42
2021/04/01 10:20:02;;;;;;;53.70;20.63;;;20.10;70.70;;;19.27;38.30;101661.81;4960765;28;104274;-42
2021/04/01 10:22:32;;;;;;;51.85;19.63;;;20.20;67.20;;;19.31;39.46;101662.16;4960807;28;102702;-41
2021/04/01 10:27:53;;;;;;;55.20;21.50;;;20.30;68.40;;;19.30;38.54;101663.25;4960558;28;102675;-42
2021/04/01 10:30:28;;;;;;;59.28;22.23;;;20.20;67.40;;;19.51;41.23;101673.56;4928830;28;104450;-42
2021/04/01 10:33:08;;;;;;;53.30;19.98;;;20.30;73.40;;;19.66;39.61;101674.88;4961330;28;102660;-42
2021/04/01 10:35:38;;;;;;;51.60;19.35;;;20.50;71.80;;;19.64;40.79;101677.91;4943459;28;104268;-43
2021/04/01 10:38:06;;;;;;;51.22;19.42;;;20.50;72.70;;;19.76;39.82;101669.50;4943516;28;102783;-42
2021/04/01 10:40:35;;;;;;;52.05;19.23;;;20.60;71.20;;;19.84;39.92;101673.75;4927929;28;102533;-41
2021/04/01 10:43:07;;;;;;;52.03;20.08;;;20.70;71.10;;;19.86;39.56;101668.78;4943563;28;103021;-42
2021/04/01 10:45:38;;;;;;;51.53;18.42;;;20.70;69.30;;;19.90;40.37;101672.75;4958804;28;103470;-42
2021/04/01 10:48:33;;;;;;;48.08;18.60;;;20.80;70.70;;;19.98;39.11;101680.66;4944469;28;102437;-42
2021/04/01 10:51:04;;;;;;;54.10;20.52;;;20.80;69.50;;;20.09;40.02;101669.69;4960226;28;102488;-42
2021/04/01 10:53:32;;;;;;;56.55;21.60;;;20.90;70.40;;;20.10;39.86;101665.84;4960250;28;103833;-42
2021/04/01 10:56:12;;;;;;;54.17;20.42;;;20.90;70.80;;;20.15;41.97;101671.44;4960036;28;104070;-42
2021/04/01 10:58:52;;;;;;;51.75;19.45;;;20.90;73.60;;;20.20;39.48;101671.53;4943458;28;102663;-42
2021/04/01 11:01:24;;;;;;;53.42;20.63;;;21.00;69.90;;;20.17;39.13;101671.19;4959984;28;105384;-41
2021/04/01 11:03:59;;;;;;;47.53;18.70;;;21.00;68.50;;;19.92;39.07;101665.06;4959950;28;102492;-41
2021/04/01 11:06:31;;;;;;;54.60;20.35;;;20.90;67.30;;;19.91;39.15;101668.94;4943132;28;102442;-42
2021/04/01 11:09:00;;;;;;;42.55;18.33;;;20.90;67.50;;;20.03;38.22;101666.03;4942608;28;102709;-42
2021/04/01 11:14:17;;;;;;;45.55;16.20;;;20.80;69.70;;;20.00;39.90;101676.78;4960125;28;102461;-42
2021/04/01 11:16:51;;;;;;;52.78;19.13;;;20.90;68.60;;;20.03;37.39;101670.72;4942977;28;102425;-42
2021/04/01 11:19:20;;;;;;;50.88;19.13;;;20.90;65.90;;;19.84;38.49;101679.28;4960725;28;102636;-42
2021/04/01 11:21:49;;;;;;;46.03;17.67;;;20.80;65.60;;;20.06;38.77;101673.84;4943062;28;103717;-41
2021/04/01 11:24:31;;;;;;;46.88;18.27;;;20.90;66.90;;;20.10;37.98;101672.22;4959078;28;102411;-41
2021/04/01 11:27:18;;;;;;;46.72;18.05;;;21.00;65.60;;;20.24;39.33;101677.38;4959764;28;103449;-39
2021/04/01 11:29:58;;;;;;;52.50;18.02;;;21.10;66.80;;;20.31;38.20;101677.19;4960682;28;102639;-42
2021/04/01 11:32:29;;;;;;;45.55;17.10;;;21.20;65.80;;;20.37;37.22;101676.16;4943029;28;104487;-43
2021/04/01 11:35:01;;;;;;;51.97;20.20;;;21.20;63.20;;;20.32;39.91;101679.72;4959768;28;102356;-42
2021/04/01 11:37:34;;;;;;;55.70;21.13;;;21.30;67.50;;;20.33;39.86;101675.84;4959980;28;103459;-41
2021/04/01 11:40:08;;;;;;;48.25;18.67;;;21.20;67.90;;;20.37;38.12;101681.69;4944147;28;102417;-42
2021/04/01 11:42:36;;;;;;;59.88;21.58;;;21.30;66.30;;;20.07;38.25;101678.28;4959680;28;103472;-42
2021/04/01 11:45:07;;;;;;;;;;;21.20;63.90;;;20.20;40.42;101679.00;4941941;28;103800;-42
2021/04/01 11:47:36;;;;;;;49.35;18.25;;;21.20;67.50;;;20.33;37.95;101675.84;4943348;28;104896;-42
2021/04/01 11:50:07;;;;;;;52.50;19.83;;;21.20;65.10;;;20.32;39.08;101679.72;4960478;28;103726;-42
2021/04/01 11:52:34;;;;;;;47.70;18.95;;;21.20;67.00;;;20.29;38.68;101679.38;4959587;28;102427;-42
2021/04/01 11:55:13;;;;;;;54.13;22.02;;;21.20;64.60;;;20.35;39.32;101678.34;4926605;28;103271;-42
2021/04/01 11:57:49;;;;;;;;;;;21.30;66.00;;;20.08;41.00;101674.41;4944396;28;105960;-41
2021/04/01 12:00:25;;;;;;;50.38;21.20;;;21.20;68.00;;;19.73;40.99;101677.47;4942953;28;102464;-41
2021/04/01 12:05:31;;;;;;;49.00;21.63;;;20.90;71.30;;;20.12;42.20;101677.50;4962729;28;102609;-42
2021/04/01 12:08:00;;;;;;;55.33;23.83;;;21.00;72.10;;;20.32;40.75;101681.63;4963672;28;103417;-42
2021/04/01 12:10:28;;;;;;;52.88;22.80;;;21.20;70.80;;;20.12;41.38;101683.03;4945714;28;102751;-42
2021/04/01 12:12:56;;;;;;;49.25;21.23;;;21.10;70.60;;;20.21;38.75;101680.66;4962496;28;103388;-41
2021/04/01 12:15:37;;;;;;;48.78;21.92;;;21.10;66.30;;;20.35;38.44;101683.88;4945666;28;103510;-44
2021/04/01 12:18:08;;;;;;;49.45;21.98;;;21.20;65.60;;;20.28;39.04;101686.84;4963594;28;103438;-42
2021/04/01 12:20:38;;;;;;;54.50;22.38;;;21.20;65.50;;;20.16;38.91;101686.13;4962661;28;102483;-42